createdAt,value
2018-11-28T00:00:32.787Z,3.50
2018-11-28T00:03:04.095Z,3.30
2018-11-28T00:05:33.302Z,3.30
2018-11-28T00:08:01.685Z,3.50
2018-11-28T00:10:31.354Z,3.40
2018-11-28T00:13:00.897Z,3.50
2018-11-28T00:15:29.586Z,3.40
2018-11-28T00:18:02.139Z,3.40
2018-11-28T00:20:32.038Z,3.40
2018-11-28T00:23:01.074Z,3.40
2018-11-28T00:25:29.426Z,3.50
2018-11-28T00:27:57.873Z,3.50
2018-11-28T00:30:26.876Z,3.50
2018-11-28T00:32:57.979Z,3.40
2018-11-28T00:35:27.987Z,3.40
2018-11-28T00:37:58.562Z,3.50
2018-11-28T00:40:30.061Z,3.40
2018-11-28T00:42:59.831Z,3.50
2018-11-28T00:45:31.220Z,3.60
2018-11-28T00:48:00.967Z,3.60
2018-11-28T00:50:36.081Z,3.70
2018-11-28T00:53:08.918Z,3.50
2018-11-28T00:55:39.991Z,3.50
2018-11-28T00:58:10.978Z,3.60
2018-11-28T01:00:39.825Z,3.60
2018-11-28T01:03:10.082Z,3.70
2018-11-28T01:05:39.930Z,3.60
2018-11-28T01:08:09.254Z,3.70
2018-11-28T01:10:40.341Z,3.50
2018-11-28T01:13:09.594Z,3.50
2018-11-28T01:15:38.486Z,3.70
2018-11-28T01:18:07.931Z,3.80
2018-11-28T01:20:36.391Z,3.70
2018-11-28T01:23:05.449Z,3.70
2018-11-28T01:25:33.833Z,3.70
2018-11-28T01:28:03.066Z,3.80
2018-11-28T01:30:31.669Z,3.80
2018-11-28T01:33:00.355Z,3.80
2018-11-28T01:35:30.324Z,3.80
2018-11-28T01:37:59.263Z,3.90
2018-11-28T01:40:29.796Z,4.00
2018-11-28T01:42:58.657Z,4.00
2018-11-28T01:45:27.712Z,4.00
2018-11-28T01:47:56.600Z,3.90
2018-11-28T01:50:29.964Z,3.90
2018-11-28T01:52:59.734Z,3.80
2018-11-28T01:55:29.008Z,3.80
2018-11-28T01:57:59.399Z,3.80
2018-11-28T02:00:28.693Z,3.90
2018-11-28T02:03:00.307Z,3.70
2018-11-28T02:05:29.653Z,3.70
2018-11-28T02:07:59.312Z,3.70
2018-11-28T02:10:29.134Z,3.80
2018-11-28T02:12:59.229Z,3.80
2018-11-28T02:15:30.464Z,3.80
2018-11-28T02:18:00.575Z,3.80
2018-11-28T02:20:31.654Z,3.90
2018-11-28T02:23:00.189Z,3.90
2018-11-28T02:25:28.975Z,3.90
2018-11-28T02:27:57.572Z,3.70
2018-11-28T02:30:26.150Z,3.70
2018-11-28T02:32:54.767Z,3.70
2018-11-28T02:35:23.456Z,3.70
2018-11-28T02:37:53.722Z,3.70
2018-11-28T02:40:23.005Z,3.70
2018-11-28T02:42:52.591Z,3.60
2018-11-28T02:45:22.619Z,3.70
2018-11-28T02:47:53.940Z,3.80
2018-11-28T02:50:22.891Z,3.80
2018-11-28T02:52:51.902Z,3.80
2018-11-28T02:55:20.661Z,3.90
2018-11-28T02:57:50.933Z,3.80
2018-11-28T03:00:22.131Z,3.90
2018-11-28T03:02:52.270Z,3.90
2018-11-28T03:05:23.280Z,3.80
2018-11-28T03:07:51.963Z,3.90
2018-11-28T03:10:22.885Z,3.90
2018-11-28T03:12:53.532Z,4.00
2018-11-28T03:15:28.073Z,4.00
2018-11-28T03:17:56.791Z,4.00
2018-11-28T03:20:27.371Z,4.00
2018-11-28T03:22:57.155Z,4.10
2018-11-28T03:25:28.886Z,4.20
2018-11-28T03:27:57.692Z,4.10
2018-11-28T03:30:27.078Z,4.00
2018-11-28T03:32:57.460Z,4.00
2018-11-28T03:35:27.682Z,4.10
2018-11-28T03:37:57.079Z,4.20
2018-11-28T03:40:26.602Z,4.20
2018-11-28T03:42:56.642Z,4.20
2018-11-28T03:45:25.969Z,4.30
2018-11-28T03:47:56.902Z,4.30
2018-11-28T03:50:25.700Z,4.30
2018-11-28T03:52:54.530Z,4.30
2018-11-28T03:55:23.372Z,4.20
2018-11-28T03:57:52.211Z,4.20
2018-11-28T04:00:32.074Z,4.10
2018-11-28T04:03:02.322Z,4.20
2018-11-28T04:05:36.147Z,4.20
2018-11-28T04:08:17.156Z,4.20
2018-11-28T04:10:55.323Z,4.20
2018-11-28T04:13:24.979Z,4.20
2018-11-28T04:16:03.102Z,4.30
2018-11-28T04:18:33.403Z,4.30
2018-11-28T04:21:05.608Z,4.20
2018-11-28T04:23:40.080Z,4.10
2018-11-28T04:26:17.215Z,4.20
2018-11-28T04:28:47.835Z,4.20
2018-11-28T04:31:18.054Z,4.30
2018-11-28T04:33:46.978Z,4.20
2018-11-28T04:36:16.167Z,4.20
2018-11-28T04:38:45.066Z,4.20
2018-11-28T04:41:14.232Z,4.30
2018-11-28T04:43:42.895Z,4.30
2018-11-28T04:46:14.742Z,4.30
2018-11-28T04:48:49.171Z,4.40
2018-11-28T04:51:17.907Z,4.30
2018-11-28T04:53:48.275Z,4.40
2018-11-28T04:56:17.385Z,4.40
2018-11-28T04:58:46.345Z,4.40
2018-11-28T05:01:15.538Z,4.40
2018-11-28T05:03:47.164Z,4.30
2018-11-28T05:06:30.801Z,4.40
2018-11-28T05:09:01.601Z,4.30
2018-11-28T05:11:33.653Z,4.40
2018-11-28T05:14:06.568Z,4.40
2018-11-28T05:16:42.376Z,4.50
2018-11-28T05:19:11.523Z,4.40
2018-11-28T05:21:41.215Z,4.30
2018-11-28T05:24:16.203Z,4.40
2018-11-28T05:26:49.951Z,4.30
2018-11-28T05:29:20.599Z,4.30
2018-11-28T05:31:54.403Z,4.30
2018-11-28T05:34:31.735Z,4.20
2018-11-28T05:37:21.121Z,4.20
2018-11-28T05:39:51.385Z,4.30
2018-11-28T05:42:28.288Z,4.30
2018-11-28T05:45:03.998Z,4.40
2018-11-28T05:47:57.750Z,4.50
2018-11-28T05:50:33.279Z,4.40
2018-11-28T05:53:03.258Z,4.50
2018-11-28T05:55:32.567Z,4.40
2018-11-28T05:58:05.397Z,4.50
2018-11-28T06:00:37.504Z,4.70
2018-11-28T06:06:41.591Z,4.40
2018-11-28T06:09:20.117Z,4.50
2018-11-28T06:17:57.930Z,4.70
2018-11-28T06:23:48.548Z,4.70
2018-11-28T06:26:23.515Z,4.70
2018-11-28T06:29:00.842Z,4.50
2018-11-28T06:31:45.727Z,4.60
2018-11-28T06:47:55.287Z,4.50
2018-11-28T06:50:39.153Z,4.30
2018-11-28T07:13:20.129Z,4.50
2018-11-28T07:16:06.244Z,4.70
2018-11-28T07:18:49.904Z,4.60
2018-11-28T07:21:24.774Z,4.60
2018-11-28T07:24:18.409Z,4.60
2018-11-28T07:27:18.872Z,4.60
2018-11-28T07:32:51.063Z,4.60
2018-11-28T07:35:49.871Z,4.60
2018-11-28T07:38:21.764Z,4.70
2018-11-28T07:40:55.368Z,4.60
2018-11-28T07:43:43.441Z,4.70
2018-11-28T07:46:14.484Z,4.90
2018-11-28T07:48:51.022Z,4.80
2018-11-28T08:25:49.399Z,5.50
2018-11-28T08:28:36.426Z,5.30
2018-11-28T08:34:21.158Z,5.70
2018-11-28T09:14:50.029Z,6.00
2018-11-28T09:17:58.007Z,5.90
2018-11-28T09:43:06.155Z,5.80
2018-11-28T10:11:20.043Z,6.40
2018-11-28T10:17:20.219Z,6.70
2018-11-28T10:20:00.002Z,6.70
2018-11-28T10:22:44.242Z,6.60
2018-11-28T10:25:34.594Z,6.60
2018-11-28T10:35:19.895Z,6.80
2018-11-28T10:38:00.532Z,6.80
2018-11-28T10:40:29.668Z,6.90
2018-11-28T10:42:59.196Z,7.00
2018-11-28T10:45:28.403Z,7.00
2018-11-28T10:47:58.395Z,6.90
2018-11-28T10:50:27.282Z,6.80
2018-11-28T10:52:56.394Z,6.90
2018-11-28T10:55:27.254Z,7.10
2018-11-28T10:57:59.547Z,7.10
2018-11-28T11:00:39.764Z,7.30
2018-11-28T11:03:15.013Z,7.20
2018-11-28T11:05:49.309Z,7.20
2018-11-28T11:08:26.573Z,7.30
2018-11-28T11:11:00.185Z,7.20
2018-11-28T11:13:34.519Z,7.30
2018-11-28T11:16:02.801Z,7.20
2018-11-28T11:18:31.155Z,7.40
2018-11-28T11:20:59.458Z,7.60
2018-11-28T11:23:27.753Z,7.50
2018-11-28T11:25:56.048Z,7.50
2018-11-28T11:28:24.328Z,7.40
2018-11-28T11:30:52.662Z,7.40
2018-11-28T11:33:20.957Z,7.60
2018-11-28T11:35:49.272Z,7.50
2018-11-28T11:38:18.767Z,7.70
2018-11-28T11:40:47.782Z,7.70
2018-11-28T11:43:16.671Z,7.60
2018-11-28T11:45:47.118Z,7.70
2018-11-28T11:48:17.560Z,7.70
2018-11-28T11:50:53.455Z,7.70
2018-11-28T11:53:46.691Z,7.60
2018-11-28T11:56:15.803Z,7.40
2018-11-28T12:02:49.488Z,7.30
2018-11-28T12:05:18.047Z,7.40
2018-11-28T12:08:00.778Z,7.50
2018-11-28T12:10:47.552Z,7.60
2018-11-28T12:13:20.543Z,7.60
2018-11-28T12:15:55.061Z,7.60
2018-11-28T12:18:31.488Z,7.60
2018-11-28T12:21:04.369Z,7.90
2018-11-28T12:23:35.285Z,7.80
2018-11-28T12:26:06.189Z,7.90
2018-11-28T12:28:43.991Z,7.90
2018-11-28T12:31:20.566Z,7.90
2018-11-28T12:33:55.468Z,7.80
2018-11-28T12:36:31.268Z,8.00
2018-11-28T12:41:56.318Z,8.00
2018-11-28T13:22:01.744Z,8.10
2018-11-28T13:25:04.832Z,8.10
2018-11-28T13:27:55.770Z,8.10
2018-11-28T13:30:28.629Z,8.10
2018-11-28T13:32:57.995Z,8.20
2018-11-28T13:35:27.536Z,8.20
2018-11-28T13:38:13.048Z,8.30
2018-11-28T13:40:53.530Z,8.40
2018-11-28T13:43:23.683Z,8.40
2018-11-28T13:45:53.405Z,8.30
2018-11-28T13:48:39.863Z,8.50
2018-11-28T13:51:19.175Z,8.40
2018-11-28T13:53:57.952Z,8.60
2018-11-28T13:58:55.034Z,8.40
2018-11-28T14:01:23.654Z,8.30
2018-11-28T14:03:52.876Z,8.20
2018-11-28T14:06:23.831Z,8.40
2018-11-28T14:08:53.955Z,8.40
2018-11-28T14:11:22.551Z,8.30
2018-11-28T14:13:51.578Z,8.40
2018-11-28T14:16:20.859Z,8.20
2018-11-28T14:18:51.397Z,8.10
2018-11-28T14:21:25.119Z,8.10
2018-11-28T14:23:53.958Z,8.20
2018-11-28T14:26:22.269Z,8.20
2018-11-28T14:28:51.387Z,7.90
2018-11-28T14:31:20.928Z,8.10
2018-11-28T14:33:50.923Z,8.30
2018-11-28T14:36:19.729Z,8.20
2018-11-28T14:38:49.273Z,8.20
2018-11-28T14:41:19.549Z,8.20
2018-11-28T14:43:47.814Z,8.40
2018-11-28T14:46:17.129Z,8.40
2018-11-28T14:48:46.563Z,8.30
2018-11-28T14:51:15.179Z,8.20
2018-11-28T14:53:48.024Z,8.30
2018-11-28T14:56:12.197Z,8.20
2018-11-28T14:58:41.068Z,8.10
2018-11-28T15:01:09.726Z,8.20
2018-11-28T15:03:38.285Z,8.20
2018-11-28T15:06:11.226Z,8.10
2018-11-28T15:08:39.848Z,7.90
2018-11-28T15:11:09.142Z,8.00
2018-11-28T15:13:37.892Z,8.00
2018-11-28T15:16:06.448Z,8.10
2018-11-28T15:18:34.900Z,8.10
2018-11-28T15:21:03.338Z,8.10
2018-11-28T15:23:31.646Z,8.10
2018-11-28T15:26:00.356Z,8.10
2018-11-28T15:28:28.969Z,8.00
2018-11-28T15:30:57.522Z,7.90
2018-11-28T15:33:26.394Z,7.80
2018-11-28T15:35:54.829Z,7.80
2018-11-28T15:38:23.225Z,7.80
2018-11-28T15:40:51.730Z,8.00
2018-11-28T15:43:20.278Z,7.80
2018-11-28T15:45:48.606Z,8.00
2018-11-28T15:48:17.199Z,7.80
2018-11-28T15:50:45.753Z,7.80
2018-11-28T15:53:14.864Z,7.80
2018-11-28T15:55:44.057Z,7.90
2018-11-28T15:58:12.865Z,8.20
2018-11-28T16:00:41.950Z,8.10
2018-11-28T16:03:10.642Z,7.90
2018-11-28T16:05:39.269Z,8.00
2018-11-28T16:08:07.820Z,8.00
2018-11-28T16:10:43.075Z,7.80
2018-11-28T16:13:14.186Z,7.80
2018-11-28T16:15:49.201Z,7.70
2018-11-28T16:18:18.085Z,7.70
2018-11-28T16:20:46.785Z,7.50
2018-11-28T16:23:16.405Z,7.50
2018-11-28T16:25:44.893Z,7.10
2018-11-28T16:28:13.575Z,7.00
2018-11-28T16:30:44.568Z,7.00
2018-11-28T16:33:14.664Z,7.00
2018-11-28T16:35:44.790Z,7.00
2018-11-28T16:38:13.926Z,7.10
2018-11-28T16:40:43.709Z,6.90
2018-11-28T16:43:12.395Z,6.90
2018-11-28T16:45:41.978Z,6.80
2018-11-28T16:48:16.161Z,7.00
2018-11-28T16:50:45.337Z,7.00
2018-11-28T16:53:14.555Z,6.90
2018-11-28T16:55:44.742Z,7.00
2018-11-28T16:58:13.146Z,7.00
2018-11-28T17:00:44.572Z,7.00
2018-11-28T17:03:13.487Z,7.00
2018-11-28T17:05:42.813Z,7.00
2018-11-28T17:08:12.021Z,6.80
2018-11-28T17:10:41.752Z,6.60
2018-11-28T17:13:11.003Z,6.60
2018-11-28T17:15:44.119Z,6.70
2018-11-28T17:18:17.227Z,6.70
2018-11-28T17:21:21.355Z,6.80
2018-11-28T17:29:58.299Z,6.90
2018-11-28T17:32:41.784Z,6.90
2018-11-28T17:35:24.456Z,6.60
2018-11-28T17:38:00.658Z,6.80
2018-11-28T17:41:02.118Z,6.90
2018-11-28T18:28:48.499Z,6.90
2018-11-28T18:31:24.173Z,6.90
2018-11-28T18:33:57.913Z,7.00
2018-11-28T18:36:37.926Z,6.90
2018-11-28T18:39:08.279Z,6.90
2018-11-28T18:41:36.795Z,6.80
2018-11-28T18:44:05.356Z,6.80
2018-11-28T18:46:33.697Z,6.90
2018-11-28T18:49:02.132Z,6.90
2018-11-28T18:51:30.715Z,6.90
2018-11-28T18:53:59.131Z,7.00
2018-11-28T18:56:27.489Z,6.80
2018-11-28T18:58:55.870Z,6.80
2018-11-28T19:01:24.254Z,6.80
2018-11-28T19:03:52.646Z,6.70
2018-11-28T19:06:21.013Z,6.70
2018-11-28T19:08:49.389Z,6.60
2018-11-28T19:11:17.771Z,6.80
2018-11-28T19:13:46.177Z,6.90
2018-11-28T19:16:14.481Z,7.10
2018-11-28T19:18:42.803Z,7.00
2018-11-28T19:21:11.175Z,7.10
2018-11-28T19:23:40.061Z,7.10
2018-11-28T19:26:08.331Z,7.10
2018-11-28T19:28:36.628Z,7.10
2018-11-28T19:31:05.347Z,7.10
2018-11-28T19:33:33.774Z,7.20
2018-11-28T19:36:02.204Z,7.20
2018-11-28T19:38:33.752Z,7.30
2018-11-28T19:41:04.397Z,7.20
2018-11-28T19:43:32.870Z,7.20
2018-11-28T19:46:02.687Z,7.30
2018-11-28T19:48:31.168Z,7.30
2018-11-28T19:51:00.601Z,7.40
2018-11-28T19:53:28.952Z,7.40
2018-11-28T19:55:57.338Z,7.20
2018-11-28T19:58:26.620Z,7.00
2018-11-28T20:00:57.155Z,7.00
2018-11-28T20:03:26.300Z,6.90
2018-11-28T20:05:56.001Z,6.90
2018-11-28T20:08:27.276Z,6.80
2018-11-28T20:10:59.053Z,7.00
2018-11-28T20:13:30.314Z,7.20
2018-11-28T20:15:58.634Z,6.90
2018-11-28T20:18:28.018Z,7.00
2018-11-28T20:20:57.781Z,7.20
2018-11-28T20:23:27.598Z,7.10
2018-11-28T20:29:09.124Z,7.40
2018-11-28T20:31:46.813Z,7.40
2018-11-28T20:40:48.213Z,6.90
2018-11-28T20:43:23.961Z,6.90
2018-11-28T20:46:05.195Z,7.00
2018-11-28T20:58:08.113Z,7.00
2018-11-28T21:00:44.242Z,7.10
2018-11-28T21:03:19.296Z,7.10
2018-11-28T21:08:29.004Z,7.30
2018-11-28T21:10:58.474Z,7.50
2018-11-28T21:13:26.869Z,7.40
2018-11-28T21:15:56.219Z,7.40
2018-11-28T21:18:26.781Z,7.40
2018-11-28T21:20:55.725Z,7.40
2018-11-28T21:23:25.017Z,7.30
2018-11-28T21:25:54.344Z,7.30
2018-11-28T21:28:23.409Z,7.40
2018-11-28T21:30:51.928Z,7.50
2018-11-28T21:33:20.897Z,7.50
2018-11-28T21:35:51.293Z,7.50
2018-11-28T21:38:19.892Z,7.20
2018-11-28T21:40:49.176Z,7.40
2018-11-28T21:43:17.604Z,7.50
2018-11-28T21:45:46.483Z,7.40
2018-11-28T21:48:14.916Z,7.50
2018-11-28T21:50:43.371Z,7.50
2018-11-28T21:53:11.781Z,7.60
2018-11-28T21:55:40.305Z,7.50
2018-11-28T21:58:08.773Z,7.70
2018-11-28T22:00:38.331Z,7.60
2018-11-28T22:03:09.462Z,7.60
2018-11-28T22:05:37.938Z,7.60
2018-11-28T22:08:06.362Z,7.70
2018-11-28T22:10:34.995Z,7.60
2018-11-28T22:13:04.787Z,7.70
2018-11-28T22:15:33.239Z,7.70
2018-11-28T22:18:04.089Z,7.60
2018-11-28T22:20:32.648Z,7.70
2018-11-28T22:23:01.270Z,7.70
2018-11-28T22:25:32.787Z,7.50
2018-11-28T22:28:01.405Z,7.60
2018-11-28T22:30:29.949Z,7.80
2018-11-28T22:32:59.449Z,7.90
2018-11-28T22:35:28.037Z,7.70
2018-11-28T22:37:56.723Z,7.90
2018-11-28T22:40:28.681Z,7.90
2018-11-28T22:42:56.949Z,7.90
2018-11-28T22:45:26.816Z,7.80
2018-11-28T22:47:55.916Z,7.80
2018-11-28T22:50:29.586Z,8.00
2018-11-28T22:52:59.139Z,8.00
2018-11-28T22:55:28.680Z,7.70
2018-11-28T22:57:57.199Z,7.80
2018-11-28T23:00:32.462Z,7.90
2018-11-28T23:03:02.680Z,7.90
2018-11-28T23:05:43.544Z,7.90
2018-11-28T23:08:13.466Z,8.00
2018-11-28T23:10:42.270Z,8.10
2018-11-28T23:13:11.878Z,7.90
2018-11-28T23:15:40.270Z,7.90
2018-11-28T23:18:09.626Z,7.90
2018-11-28T23:20:38.011Z,8.10
2018-11-28T23:23:07.758Z,8.10
2018-11-28T23:25:36.530Z,8.00
2018-11-28T23:28:05.053Z,8.00
2018-11-28T23:30:33.509Z,8.10
2018-11-28T23:33:02.282Z,8.10
2018-11-28T23:35:30.714Z,8.00
2018-11-28T23:37:59.069Z,8.20
2018-11-28T23:40:27.619Z,8.30
2018-11-28T23:42:56.353Z,8.10
2018-11-28T23:45:25.353Z,8.10
2018-11-28T23:47:53.682Z,8.00
2018-11-28T23:50:23.773Z,8.00
2018-11-28T23:52:53.219Z,8.00
2018-11-28T23:55:23.969Z,8.20
2018-11-28T23:57:56.420Z,8.20
